This is the latest recevied weather packets stored in our database for station/object IT9RID. If no packets are shown the sender has not sent any weather packets the latest 10 day(s).
| Time | Temp. | Humidity | Pressure | Rain* | Wind** | Luminosity | Snow |
|---|---|---|---|---|---|---|---|
| 1787937462 | 32.22° C | 51% | 1014.3 hPa | 0 mm | - | - | - |
| 1787936861 | 32.78° C | 49% | 1014.2 hPa | 0 mm | - | - | - |
| 1787936261 | 33.33° C | 48% | 1014.3 hPa | 0 mm | - | - | - |
| 1787935661 | 33.33° C | 49% | 1014.4 hPa | 0 mm | - | - | - |
| 1787935061 | 33.33° C | 47% | 1014.4 hPa | 0 mm | - | - | - |
| 1787934461 | 33.89° C | 43% | 1014.5 hPa | 0 mm | - | - | - |
| 1787933861 | 33.89° C | 43% | 1014.6 hPa | 0 mm | - | - | - |
| 1787933260 | 33.89° C | 44% | 1014.7 hPa | 0 mm | - | - | - |
| 1787932660 | 33.89° C | 46% | 1014.7 hPa | 0 mm | - | - | - |
| 1787932060 | 34.44° C | 46% | 1014.8 hPa | 0 mm | - | - | - |
| 1787931460 | 35.56° C | 42% | 1014.6 hPa | 0 mm | - | - | - |
| 1787930860 | 36.11° C | 40% | 1014.5 hPa | 0 mm | - | - | - |
| 1787930260 | 36.11° C | 38% | 1014.4 hPa | 0 mm | - | - | - |
| 1787929660 | 37.22° C | 36% | 1014.2 hPa | 0 mm | - | - | - |
| 1787929059 | 37.22° C | 39% | 1014.2 hPa | 0 mm | - | - | - |
| 1787928459 | 37.22° C | 42% | 1014.1 hPa | 0 mm | - | - | - |
| 1787927859 | 36.67° C | 43% | 1014.3 hPa | 0 mm | - | - | - |
| 1787927259 | 37.22° C | 41% | 1014.4 hPa | 0 mm | - | - | - |
| 1787926659 | 36.67° C | 44% | 1014.6 hPa | 0 mm | - | - | - |
| 1787926058 | 36.67° C | 44% | 1014.6 hPa | 0 mm | - | - | - |
| 1787925458 | 37.22° C | 37% | 1014.6 hPa | 0 mm | - | - | - |
| 1787924858 | 37.22° C | 38% | 1014.7 hPa | 0 mm | - | - | - |
| 1787924258 | 37.22° C | 38% | 1014.8 hPa | 0 mm | - | - | - |
| 1787923658 | 36.67° C | 40% | 1015 hPa | 0 mm | - | - | - |
| 1787923058 | 36.67° C | 39% | 1015.1 hPa | 0 mm | - | - | - |
* Rain latest hour (hover to see other rain measurements)
** Current wind speed in m/s (hover to see current wind gust speed)